地図

経路データ

SID SEASON NUMBER BASIN SUBBASIN NAME ISO_TIME NATURE LAT LON WMO_WIND WMO_PRES WMO_AGENCY TRACK_TYPE DIST2LAND LANDFALL IFLAG USA_AGENCY USA_ATCF_ID USA_LAT USA_LON USA_RECORD USA_STATUS USA_WIND USA_PRES USA_SSHS USA_R34_NE USA_R34_SE USA_R34_SW USA_R34_NW USA_R50_NE USA_R50_SE USA_R50_SW USA_R50_NW USA_R64_NE USA_R64_SE USA_R64_SW USA_R64_NW USA_POCI USA_ROCI USA_RMW USA_EYE TOKYO_LAT TOKYO_LON TOKYO_GRADE TOKYO_WIND TOKYO_PRES TOKYO_R50_DIR TOKYO_R50_LONG TOKYO_R50_SHORT TOKYO_R30_DIR TOKYO_R30_LONG TOKYO_R30_SHORT TOKYO_LAND CMA_LAT CMA_LON CMA_CAT CMA_WIND CMA_PRES HKO_LAT HKO_LON HKO_CAT HKO_WIND HKO_PRES NEWDELHI_LAT NEWDELHI_LON NEWDELHI_GRADE NEWDELHI_WIND NEWDELHI_PRES NEWDELHI_CI NEWDELHI_DP NEWDELHI_POCI REUNION_LAT REUNION_LON REUNION_TYPE REUNION_WIND REUNION_PRES REUNION_TNUM REUNION_CI REUNION_RMW REUNION_R34_NE REUNION_R34_SE REUNION_R34_SW REUNION_R34_NW REUNION_R50_NE REUNION_R50_SE REUNION_R50_SW REUNION_R50_NW REUNION_R64_NE REUNION_R64_SE REUNION_R64_SW REUNION_R64_NW BOM_LAT BOM_LON BOM_TYPE BOM_WIND BOM_PRES BOM_TNUM BOM_CI BOM_RMW BOM_R34_NE BOM_R34_SE BOM_R34_SW BOM_R34_NW BOM_R50_NE BOM_R50_SE BOM_R50_SW BOM_R50_NW BOM_R64_NE BOM_R64_SE BOM_R64_SW BOM_R64_NW BOM_ROCI BOM_POCI BOM_EYE BOM_POS_METHOD BOM_PRES_METHOD NADI_LAT NADI_LON NADI_CAT NADI_WIND NADI_PRES WELLINGTON_LAT WELLINGTON_LON WELLINGTON_WIND WELLINGTON_PRES DS824_LAT DS824_LON DS824_STAGE DS824_WIND DS824_PRES TD9636_LAT TD9636_LON TD9636_STAGE TD9636_WIND TD9636_PRES TD9635_LAT TD9635_LON TD9635_WIND TD9635_PRES TD9635_ROCI NEUMANN_LAT NEUMANN_LON NEUMANN_CLASS NEUMANN_WIND NEUMANN_PRES MLC_LAT MLC_LON MLC_CLASS MLC_WIND MLC_PRES USA_GUST BOM_GUST BOM_GUST_PER REUNION_GUST REUNION_GUST_PER USA_SEAHGT USA_SEARAD_NE USA_SEARAD_SE USA_SEARAD_SW USA_SEARAD_NW STORM_SPEED STORM_DIR
1929165S18154 1929 36 SP EA NOT_NAMED 1929-06-13 23:00:00 NR -18.0000 153.800 bom main 584 570 ______O_______ -1 -18.0000 153.800 8 218
1929165S18154 1929 36 SP EA NOT_NAMED 1929-06-14 00:00:00 TS -18.1120 153.710 main 570 534 ______P__O____ -1 -18.1180 153.715 -18.1000 153.700 TC 8 213
1929165S18154 1929 36 SP EA NOT_NAMED 1929-06-14 03:00:00 TS -18.4670 153.474 main 524 485 ______P__P____ -1 -18.4747 153.469 -18.4555 153.481 TC 8 210
1929165S18154 1929 36 SP EA NOT_NAMED 1929-06-14 06:00:00 TS -18.8320 153.262 main 485 436 ______P__P____ -1 -18.8420 153.249 -18.8186 153.279 TC 8 206
1929165S18154 1929 36 SP EA NOT_NAMED 1929-06-14 09:00:00 TS -19.2127 153.095 main 436 402 ______P__P____ -1 -19.2281 153.077 -19.1974 153.113 TC 8 200
1929165S18154 1929 36 SP EA NOT_NAMED 1929-06-14 11:00:00 TS -19.4813 153.015 bom main 402 393 ______O__P____ -1 -19.5000 153.000 -19.4627 153.031 TC 8 194
1929165S18154 1929 36 SP EA NOT_NAMED 1929-06-14 12:00:00 TS -19.6205 152.987 main 393 358 ______P__O____ -1 -19.6411 152.975 -19.6000 153.000 TC 9 185
1929165S18154 1929 36 SP EA NOT_NAMED 1929-06-14 15:00:00 TS -20.0538 152.950 main 350 318 ______P__P____ -1 -20.0780 152.947 -20.0296 152.954 TC 9 181
1929165S18154 1929 36 SP EA NOT_NAMED 1929-06-14 18:00:00 TS -20.4943 152.970 main 318 289 ______P__P____ -1 -20.5184 152.976 -20.4702 152.965 TC 9 175
1929165S18154 1929 36 SP EA NOT_NAMED 1929-06-14 21:00:00 TS -20.9204 153.031 main 289 278 ______P__P____ -1 -20.9401 153.044 -20.9007 153.018 TC 8 172
1929165S18154 1929 36 SP EA NOT_NAMED 1929-06-14 23:00:00 TS -21.1858 153.085 bom main 278 272 ______O__P____ -1 -21.2000 153.100 -21.1716 153.071 TC 8 169
1929165S18154 1929 36 SP EA NOT_NAMED 1929-06-15 00:00:00 TS -21.3033 153.103 main 272 257 ______P__O____ -1 -21.3066 153.105 -21.3000 153.100 TC 7 171
1929165S18154 1929 36 SP EA NOT_NAMED 1929-06-15 03:00:00 TS -21.6186 153.159 main 266 255 ______P__P____ -1 -21.5855 153.120 -21.6518 153.197 TC 6 169
1929165S18154 1929 36 SP EA NOT_NAMED 1929-06-15 06:00:00 TS -21.8869 153.224 main 255 253 ______P__P____ -1 -21.8160 153.143 -21.9579 153.305 TC 5 166
1929165S18154 1929 36 SP EA NOT_NAMED 1929-06-15 09:00:00 TS -22.1196 153.302 main 260 259 ______P__P____ -1 -22.0145 153.182 -22.2248 153.422 TC 5 160
1929165S18154 1929 36 SP EA NOT_NAMED 1929-06-15 12:00:00 TS -22.3283 153.398 main 259 249 ______P__P____ -1 -22.1974 153.249 -22.4591 153.548 TC 5 154
1929165S18154 1929 36 SP EA NOT_NAMED 1929-06-15 15:00:00 TS -22.5243 153.517 main 249 236 ______P__P____ -1 -22.3812 153.354 -22.6673 153.680 TC 5 148
1929165S18154 1929 36 SP EA NOT_NAMED 1929-06-15 18:00:00 TS -22.7191 153.662 main 238 218 ______P__P____ -1 -22.5823 153.508 -22.8558 153.817 TC 5 144
1929165S18154 1929 36 SP EA NOT_NAMED 1929-06-15 21:00:00 TS -22.9088 153.822 main 218 210 ______P__P____ -1 -22.8169 153.720 -23.0312 153.958 TC 5 141
1929165S18154 1929 36 SP EA NOT_NAMED 1929-06-15 23:00:00 TS -23.0480 153.951 996 bom main 213 202 ______O__P____ -1 -23.0000 153.900 996 4 -23.1441 154.052 TC 6 139
1929165S18154 1929 36 SP EA NOT_NAMED 1929-06-16 00:00:00 TS -23.1210 154.022 main 202 186 ______P__O____ -1 -23.1012 154.002 -23.2000 154.100 TC 35 996 8 136
1929165S18154 1929 36 SP EA NOT_NAMED 1929-06-16 03:00:00 NR -23.4422 154.358 main 192 180 ______P_______ -1 -23.4422 154.358 TC 10 136
1929165S18154 1929 36 SP EA NOT_NAMED 1929-06-16 06:00:00 NR -23.8330 154.781 main 188 182 ______P_______ -1 -23.8330 154.781 TC 12 135
1929165S18154 1929 36 SP EA NOT_NAMED 1929-06-16 09:00:00 NR -24.2657 155.260 main 207 207 ______P_______ -1 -24.2657 155.260 TC 13 134
1929165S18154 1929 36 SP EA NOT_NAMED 1929-06-16 12:00:00 NR -24.7320 155.789 main 244 242 ______P_______ -1 -24.7320 155.789 TC 14 134
1929165S18154 1929 36 SP EA NOT_NAMED 1929-06-16 15:00:00 NR -25.2240 156.358 main 302 302 ______P_______ -1 -25.2240 156.358 TC 15 133
1929165S18154 1929 36 SP EA NOT_NAMED 1929-06-16 18:00:00 NR -25.7335 156.958 main 369 369 ______P_______ -1 -25.7335 156.958 TC 15 133
1929165S18154 1929 36 SP EA NOT_NAMED 1929-06-16 21:00:00 NR -26.2525 157.579 main 445 445 ______P_______ -1 -26.2525 157.579 TC 15 133
1929165S18154 1929 36 SP EA NOT_NAMED 1929-06-16 23:00:00 NR -26.6000 158.000 bom main 469 ______O_______ -1 -26.6000 158.000 TC 15 133

デジタル台風データ・検索

IBTrACS Databaseについて

本データベースは、米国NOAAが公開する1842年以降の世界の熱帯低気圧のベストトラックデータアーカイブInternational Best Track Archive for Climate Stewardship (IBTrACS)を、ウェブで閲覧しやすい形式に変換したものです。

最終更新日:2021-11-26